createdAt,value
2022-10-02T00:01:55.719Z,100.00
2022-10-02T00:05:02.560Z,100.00
2022-10-02T00:08:39.902Z,100.00
2022-10-02T00:11:48.387Z,100.00
2022-10-02T00:14:54.334Z,100.00
2022-10-02T00:18:01.471Z,100.00
2022-10-02T00:21:41.744Z,100.00
2022-10-02T00:24:50.409Z,100.00
2022-10-02T00:28:12.349Z,100.00
2022-10-02T00:31:22.903Z,100.00
2022-10-02T00:34:42.183Z,100.00
2022-10-02T00:37:52.770Z,100.00
2022-10-02T00:41:09.323Z,100.00
2022-10-02T00:45:00.140Z,100.00
2022-10-02T00:48:29.824Z,100.00
2022-10-02T00:51:52.223Z,100.00
2022-10-02T00:55:08.503Z,100.00
2022-10-02T00:58:28.788Z,100.00
2022-10-02T01:01:49.182Z,100.00
2022-10-02T01:04:50.601Z,100.00
2022-10-02T01:07:53.965Z,100.00
2022-10-02T01:10:55.234Z,100.00
2022-10-02T01:13:57.505Z,100.00
2022-10-02T01:16:59.020Z,100.00
2022-10-02T01:20:03.641Z,100.00
2022-10-02T01:23:23.446Z,100.00
2022-10-02T01:26:24.782Z,100.00
2022-10-02T01:29:26.169Z,100.00
2022-10-02T01:32:28.411Z,100.00
2022-10-02T01:35:33.498Z,100.00
2022-10-02T01:38:35.626Z,100.00
2022-10-02T01:41:43.128Z,100.00
2022-10-02T01:44:45.541Z,100.00
2022-10-02T01:47:57.239Z,100.00
2022-10-02T01:51:10.011Z,100.00
2022-10-02T01:54:17.360Z,100.00
2022-10-02T01:57:21.703Z,100.00
2022-10-02T02:00:24.611Z,100.00
2022-10-02T02:04:04.637Z,100.00
2022-10-02T02:07:42.185Z,100.00
2022-10-02T02:10:51.848Z,100.00
2022-10-02T02:14:11.665Z,100.00
2022-10-02T02:17:22.568Z,100.00
2022-10-02T02:20:36.435Z,100.00
2022-10-02T02:23:41.233Z,100.00
2022-10-02T02:26:44.913Z,100.00
2022-10-02T02:29:50.106Z,100.00
2022-10-02T02:32:55.904Z,100.00
2022-10-02T02:36:03.764Z,100.00
2022-10-02T02:39:11.995Z,100.00
2022-10-02T02:42:18.166Z,100.00
2022-10-02T02:45:24.957Z,100.00
2022-10-02T02:48:31.221Z,100.00
2022-10-02T02:51:37.906Z,100.00
2022-10-02T02:54:50.217Z,100.00
2022-10-02T02:58:12.862Z,100.00
2022-10-02T03:01:14.382Z,100.00
2022-10-02T03:04:15.789Z,100.00
2022-10-02T03:07:17.574Z,100.00
2022-10-02T03:10:28.490Z,100.00
2022-10-02T03:13:57.322Z,100.00
2022-10-02T03:17:08.043Z,100.00
2022-10-02T03:20:40.530Z,100.00
2022-10-02T03:23:56.362Z,100.00
2022-10-02T03:27:07.051Z,100.00
2022-10-02T03:30:11.452Z,100.00
2022-10-02T03:33:15.927Z,100.00
2022-10-02T03:36:17.646Z,100.00
2022-10-02T03:39:26.458Z,100.00
2022-10-02T03:42:31.973Z,100.00
2022-10-02T03:45:50.549Z,100.00
2022-10-02T03:48:52.535Z,100.00
2022-10-02T03:51:53.937Z,100.00
2022-10-02T03:55:13.072Z,100.00
2022-10-02T03:58:16.707Z,100.00
2022-10-02T04:01:26.884Z,100.00
2022-10-02T04:04:40.304Z,100.00
2022-10-02T04:07:50.253Z,100.00
2022-10-02T04:11:00.912Z,100.00
2022-10-02T04:14:35.156Z,100.00
2022-10-02T04:17:59.256Z,100.00
2022-10-02T04:21:33.092Z,100.00
2022-10-02T04:24:43.348Z,100.00
2022-10-02T04:27:49.801Z,100.00
2022-10-02T04:30:53.285Z,100.00
2022-10-02T04:34:01.669Z,100.00
2022-10-02T04:37:10.713Z,100.00
2022-10-02T04:41:06.382Z,100.00
2022-10-02T04:44:19.698Z,100.00
2022-10-02T04:47:23.971Z,100.00
2022-10-02T04:50:37.576Z,100.00
2022-10-02T04:53:51.002Z,100.00
2022-10-02T04:57:02.526Z,100.00
2022-10-02T05:00:19.717Z,100.00
2022-10-02T05:03:33.431Z,100.00
2022-10-02T05:06:59.112Z,100.00
2022-10-02T05:10:24.983Z,100.00
2022-10-02T05:13:32.324Z,100.00
2022-10-02T05:17:15.875Z,100.00
2022-10-02T05:20:52.408Z,100.00
2022-10-02T05:24:15.554Z,100.00
2022-10-02T05:27:27.275Z,100.00
2022-10-02T05:31:01.753Z,100.00
2022-10-02T05:34:14.469Z,100.00
2022-10-02T05:37:42.191Z,100.00
2022-10-02T05:41:01.967Z,100.00
2022-10-02T05:44:14.188Z,100.00
2022-10-02T05:47:26.371Z,100.00
2022-10-02T05:50:33.395Z,100.00
2022-10-02T05:53:40.584Z,100.00
2022-10-02T05:56:54.532Z,100.00
2022-10-02T06:00:33.907Z,100.00
2022-10-02T06:03:43.336Z,100.00
2022-10-02T06:06:46.725Z,100.00
2022-10-02T06:09:51.104Z,100.00
2022-10-02T06:12:58.466Z,100.00
2022-10-02T06:16:13.102Z,100.00
2022-10-02T06:19:30.558Z,100.00
2022-10-02T06:22:44.073Z,100.00
2022-10-02T06:25:50.476Z,100.00
2022-10-02T06:29:03.695Z,100.00
2022-10-02T06:32:37.389Z,100.00
2022-10-02T06:35:58.747Z,100.00
2022-10-02T06:39:38.469Z,100.00
2022-10-02T06:42:57.794Z,100.00
2022-10-02T06:46:11.052Z,100.00
2022-10-02T06:49:37.043Z,100.00
2022-10-02T06:53:15.383Z,100.00
2022-10-02T06:56:45.595Z,100.00
2022-10-02T07:00:04.594Z,97.98
2022-10-02T07:03:29.359Z,99.39
2022-10-02T07:06:41.292Z,100.00
2022-10-02T07:10:16.641Z,99.93
2022-10-02T07:13:48.900Z,100.00
2022-10-02T07:17:01.211Z,98.36
2022-10-02T07:20:29.055Z,99.49
2022-10-02T07:23:30.351Z,100.00
2022-10-02T07:26:47.041Z,100.00
2022-10-02T07:29:51.728Z,100.00
2022-10-02T07:33:09.007Z,100.00
2022-10-02T07:36:26.968Z,100.00
2022-10-02T07:39:49.448Z,100.00
2022-10-02T07:43:08.927Z,100.00
2022-10-02T07:46:28.760Z,100.00
2022-10-02T07:49:39.252Z,100.00
2022-10-02T07:53:13.129Z,100.00
2022-10-02T07:56:16.657Z,100.00
2022-10-02T07:59:18.612Z,100.00
2022-10-02T08:02:30.457Z,100.00
2022-10-02T08:05:45.673Z,100.00
2022-10-02T08:09:21.853Z,100.00
2022-10-02T08:12:39.821Z,100.00
2022-10-02T08:15:44.140Z,100.00
2022-10-02T08:19:01.423Z,100.00
2022-10-02T08:22:30.622Z,100.00
2022-10-02T08:25:43.077Z,96.03
2022-10-02T08:29:03.029Z,97.71
2022-10-02T08:32:09.714Z,99.77
2022-10-02T08:35:12.826Z,100.00
2022-10-02T08:38:32.431Z,100.00
2022-10-02T08:41:42.529Z,100.00
2022-10-02T08:44:56.053Z,100.00
2022-10-02T08:47:57.283Z,100.00
2022-10-02T08:51:07.830Z,100.00
2022-10-02T08:54:44.667Z,100.00
2022-10-02T08:58:01.195Z,100.00
2022-10-02T09:01:23.789Z,100.00
2022-10-02T09:04:44.018Z,100.00
2022-10-02T09:08:04.339Z,100.00
2022-10-02T09:11:53.679Z,100.00
2022-10-02T09:15:05.971Z,100.00
2022-10-02T09:18:44.932Z,100.00
2022-10-02T09:21:54.661Z,100.00
2022-10-02T09:25:18.296Z,100.00
2022-10-02T09:28:34.148Z,100.00
2022-10-02T09:31:57.111Z,100.00
2022-10-02T09:35:19.440Z,100.00
2022-10-02T09:38:26.644Z,100.00
2022-10-02T09:41:58.346Z,100.00
2022-10-02T09:45:21.012Z,100.00
2022-10-02T09:48:44.041Z,100.00
2022-10-02T09:52:00.633Z,100.00
2022-10-02T09:55:21.589Z,100.00
2022-10-02T09:58:34.858Z,100.00
2022-10-02T10:02:04.250Z,100.00
2022-10-02T10:05:34.979Z,100.00
2022-10-02T10:09:19.841Z,99.67
2022-10-02T10:12:33.717Z,100.00
2022-10-02T10:15:56.398Z,100.00
2022-10-02T10:19:03.702Z,100.00
2022-10-02T10:22:15.434Z,100.00
2022-10-02T10:25:42.500Z,100.00
2022-10-02T10:29:14.646Z,97.04
2022-10-02T10:32:52.978Z,95.20
2022-10-02T10:36:28.502Z,95.14
2022-10-02T10:39:54.644Z,94.93
2022-10-02T10:43:30.003Z,96.16
2022-10-02T10:46:49.704Z,96.58
2022-10-02T10:50:14.052Z,97.91
2022-10-02T10:53:18.355Z,99.44
2022-10-02T10:56:34.915Z,99.17
2022-10-02T11:00:08.681Z,96.71
2022-10-02T11:03:26.475Z,98.05
2022-10-02T11:07:00.552Z,99.25
2022-10-02T11:10:35.323Z,100.00
2022-10-02T11:13:55.828Z,100.00
2022-10-02T11:17:25.024Z,100.00
2022-10-02T11:20:29.076Z,100.00
2022-10-02T11:24:12.002Z,100.00
2022-10-02T11:27:32.238Z,100.00
2022-10-02T11:30:41.455Z,100.00
2022-10-02T11:34:20.357Z,100.00
2022-10-02T11:37:54.908Z,100.00
2022-10-02T11:41:18.106Z,100.00
2022-10-02T11:44:31.610Z,100.00
2022-10-02T11:47:39.025Z,99.60
2022-10-02T11:50:46.531Z,97.47
2022-10-02T11:54:03.187Z,95.11
2022-10-02T11:57:23.374Z,97.30
2022-10-02T12:00:56.655Z,97.32
2022-10-02T12:04:20.698Z,98.30
2022-10-02T12:07:45.250Z,99.52
2022-10-02T12:11:04.568Z,100.00
2022-10-02T12:14:19.262Z,100.00
2022-10-02T12:17:32.491Z,100.00
2022-10-02T12:20:42.894Z,100.00
2022-10-02T12:23:47.287Z,99.75
2022-10-02T12:27:15.359Z,98.93
2022-10-02T12:30:31.848Z,98.93
2022-10-02T12:34:10.103Z,96.99
2022-10-02T12:37:18.192Z,95.88
2022-10-02T12:40:35.508Z,94.18
2022-10-02T12:43:51.812Z,93.24
2022-10-02T12:47:18.227Z,91.27
2022-10-02T12:50:55.099Z,91.96
2022-10-02T12:54:34.485Z,91.09
2022-10-02T12:57:56.192Z,90.75
2022-10-02T13:01:16.134Z,91.18
2022-10-02T13:04:45.861Z,92.24
2022-10-02T13:08:05.514Z,90.65
2022-10-02T13:11:31.291Z,89.06
2022-10-02T13:14:45.153Z,89.02
2022-10-02T13:18:02.389Z,88.53
2022-10-02T13:21:23.751Z,89.14
2022-10-02T13:24:45.601Z,89.09
2022-10-02T13:28:11.660Z,89.89
2022-10-02T13:31:40.350Z,89.12
2022-10-02T13:35:01.477Z,89.68
2022-10-02T13:38:14.853Z,88.38
2022-10-02T13:41:16.086Z,87.67
2022-10-02T13:44:29.466Z,87.80
2022-10-02T13:47:41.945Z,87.34
2022-10-02T13:50:57.559Z,85.88
2022-10-02T13:54:22.330Z,85.25
2022-10-02T13:57:35.779Z,86.02
2022-10-02T14:00:37.014Z,84.94
2022-10-02T14:03:56.590Z,86.47
2022-10-02T14:07:22.370Z,86.54
2022-10-02T14:10:26.628Z,86.70
2022-10-02T14:13:34.667Z,86.17
2022-10-02T14:16:49.094Z,86.08
2022-10-02T14:20:27.335Z,84.72
2022-10-02T14:23:40.656Z,83.66
2022-10-02T14:27:10.523Z,82.09
2022-10-02T14:30:46.492Z,81.57
2022-10-02T14:34:07.560Z,83.37
2022-10-02T14:37:46.348Z,83.89
2022-10-02T14:40:50.453Z,84.62
2022-10-02T14:44:09.049Z,83.27
2022-10-02T14:47:28.458Z,83.50
2022-10-02T14:50:43.920Z,83.65
2022-10-02T14:54:01.556Z,83.71
2022-10-02T14:57:02.845Z,84.51
2022-10-02T15:00:23.625Z,84.41
2022-10-02T15:03:40.165Z,84.62
2022-10-02T15:07:10.937Z,84.68
2022-10-02T15:10:33.709Z,85.35
2022-10-02T15:13:45.457Z,85.85
2022-10-02T15:16:49.121Z,86.11
2022-10-02T15:20:05.739Z,86.36
2022-10-02T15:23:12.667Z,86.31
2022-10-02T15:26:26.062Z,86.34
2022-10-02T15:29:30.386Z,86.21
2022-10-02T15:33:21.555Z,85.66
2022-10-02T15:36:48.674Z,85.64
2022-10-02T15:40:20.638Z,85.67
2022-10-02T15:43:43.567Z,86.18
2022-10-02T15:46:55.995Z,86.58
2022-10-02T15:50:00.323Z,86.77
2022-10-02T15:53:20.307Z,87.04
2022-10-02T15:56:47.888Z,87.39
2022-10-02T15:59:59.055Z,88.15
2022-10-02T16:03:16.459Z,88.18
2022-10-02T16:06:48.132Z,88.55
2022-10-02T16:09:52.512Z,89.00
2022-10-02T16:13:19.119Z,88.85
2022-10-02T16:16:57.707Z,89.16
2022-10-02T16:20:29.843Z,89.56
2022-10-02T16:23:34.095Z,90.55
2022-10-02T16:26:55.372Z,90.49
2022-10-02T16:30:05.346Z,91.30
2022-10-02T16:33:17.980Z,91.51
2022-10-02T16:36:45.392Z,92.29
2022-10-02T16:39:55.515Z,92.49
2022-10-02T16:43:23.550Z,92.26
2022-10-02T16:46:35.864Z,92.66
2022-10-02T16:49:58.694Z,92.81
2022-10-02T16:53:06.454Z,93.40
2022-10-02T16:56:51.088Z,93.34
2022-10-02T17:00:23.798Z,93.32
2022-10-02T17:03:33.258Z,93.68
2022-10-02T17:07:01.613Z,93.44
2022-10-02T17:10:20.107Z,93.96
2022-10-02T17:13:44.309Z,94.05
2022-10-02T17:16:51.482Z,94.76
2022-10-02T17:20:02.071Z,95.07
2022-10-02T17:23:13.970Z,95.36
2022-10-02T17:26:33.032Z,95.36
2022-10-02T17:29:46.802Z,95.73
2022-10-02T17:32:55.272Z,96.37
2022-10-02T17:36:17.835Z,96.42
2022-10-02T17:39:42.830Z,96.63
2022-10-02T17:43:04.258Z,97.16
2022-10-02T17:46:20.563Z,97.67
2022-10-02T17:49:30.872Z,97.90
2022-10-02T17:52:45.618Z,98.16
2022-10-02T17:56:11.522Z,98.02
2022-10-02T17:59:48.151Z,98.47
2022-10-02T18:03:07.458Z,98.84
2022-10-02T18:06:33.514Z,98.96
2022-10-02T18:09:56.603Z,99.55
2022-10-02T18:13:25.271Z,99.62
2022-10-02T18:16:45.774Z,100.00
2022-10-02T18:20:20.909Z,100.00
2022-10-02T18:23:28.308Z,100.00
2022-10-02T18:26:48.952Z,100.00
2022-10-02T18:30:17.580Z,100.00
2022-10-02T18:33:39.088Z,100.00
2022-10-02T18:37:20.100Z,100.00
2022-10-02T18:40:29.921Z,100.00
2022-10-02T18:43:48.012Z,100.00
2022-10-02T18:47:37.540Z,100.00
2022-10-02T18:51:00.944Z,100.00
2022-10-02T18:54:17.337Z,100.00
2022-10-02T18:57:43.225Z,100.00
2022-10-02T19:00:59.578Z,100.00
2022-10-02T19:04:42.298Z,100.00
2022-10-02T19:07:57.904Z,100.00
2022-10-02T19:10:59.250Z,100.00
2022-10-02T19:14:13.334Z,100.00
2022-10-02T19:17:21.958Z,100.00
2022-10-02T19:21:02.678Z,100.00
2022-10-02T19:24:03.979Z,100.00
2022-10-02T19:27:15.102Z,100.00
2022-10-02T19:30:25.680Z,100.00
2022-10-02T19:33:38.534Z,100.00
2022-10-02T19:36:46.591Z,100.00
2022-10-02T19:39:52.848Z,100.00
2022-10-02T19:43:05.860Z,100.00
2022-10-02T19:46:07.848Z,100.00
2022-10-02T19:49:19.251Z,100.00
2022-10-02T19:52:36.395Z,100.00
2022-10-02T19:55:41.583Z,100.00
2022-10-02T19:58:47.344Z,100.00
2022-10-02T20:01:52.107Z,100.00
2022-10-02T20:04:58.328Z,100.00
2022-10-02T20:08:07.106Z,100.00
2022-10-02T20:11:21.277Z,100.00
2022-10-02T20:14:28.191Z,100.00
2022-10-02T20:17:30.240Z,100.00
2022-10-02T20:20:36.382Z,100.00
2022-10-02T20:23:42.920Z,100.00
2022-10-02T20:26:46.831Z,100.00
2022-10-02T20:29:53.229Z,100.00
2022-10-02T20:33:17.581Z,100.00
2022-10-02T20:36:24.450Z,100.00
2022-10-02T20:39:32.257Z,100.00
2022-10-02T20:42:40.885Z,100.00
2022-10-02T20:45:50.286Z,100.00
2022-10-02T20:49:18.025Z,100.00
2022-10-02T20:52:49.238Z,100.00
2022-10-02T20:56:13.342Z,100.00
2022-10-02T20:59:29.914Z,100.00
2022-10-02T21:02:58.083Z,100.00
2022-10-02T21:06:11.522Z,100.00
2022-10-02T21:10:10.110Z,100.00
2022-10-02T21:13:22.543Z,100.00
2022-10-02T21:16:45.517Z,100.00
2022-10-02T21:20:33.165Z,100.00
2022-10-02T21:24:07.423Z,100.00
2022-10-02T21:27:58.090Z,100.00
2022-10-02T21:31:22.457Z,100.00
2022-10-02T21:34:58.875Z,100.00
2022-10-02T21:38:30.509Z,100.00
2022-10-02T21:41:58.072Z,100.00
2022-10-02T21:45:01.894Z,100.00
2022-10-02T21:48:39.799Z,100.00
2022-10-02T21:52:08.227Z,100.00
2022-10-02T21:55:46.684Z,100.00
2022-10-02T21:59:06.704Z,100.00
2022-10-02T22:02:25.954Z,100.00
2022-10-02T22:06:00.034Z,100.00
2022-10-02T22:09:25.693Z,100.00
2022-10-02T22:12:54.553Z,100.00
2022-10-02T22:16:10.856Z,100.00
2022-10-02T22:19:38.575Z,100.00
2022-10-02T22:22:59.458Z,100.00
2022-10-02T22:26:36.242Z,100.00
2022-10-02T22:29:48.191Z,100.00
2022-10-02T22:33:09.130Z,100.00
2022-10-02T22:36:32.189Z,100.00
2022-10-02T22:39:40.654Z,100.00
2022-10-02T22:42:48.801Z,100.00
2022-10-02T22:46:09.238Z,100.00
2022-10-02T22:49:20.793Z,100.00
2022-10-02T22:52:33.171Z,100.00
2022-10-02T22:55:44.586Z,100.00
2022-10-02T22:58:56.830Z,100.00
2022-10-02T23:02:06.240Z,100.00
2022-10-02T23:05:27.565Z,100.00
2022-10-02T23:08:56.845Z,100.00
2022-10-02T23:12:12.286Z,100.00
2022-10-02T23:15:28.086Z,100.00
2022-10-02T23:19:02.330Z,100.00
2022-10-02T23:22:08.071Z,100.00
2022-10-02T23:25:22.478Z,100.00
2022-10-02T23:28:26.827Z,100.00
2022-10-02T23:31:35.310Z,100.00
2022-10-02T23:34:46.079Z,100.00
2022-10-02T23:37:55.504Z,100.00
2022-10-02T23:41:16.119Z,100.00
2022-10-02T23:44:43.202Z,100.00
2022-10-02T23:47:50.484Z,100.00
2022-10-02T23:51:16.829Z,100.00
2022-10-02T23:54:24.232Z,100.00
2022-10-02T23:57:31.625Z,100.00
